KHSP/HSP METAR and TAF weather

Enter ICAO airport designator
Station Type Date Time Source
KHSP METAR 2021/09/24 05:55 UTC NOAA

KHSP 240555Z AUTO 28014G20KT 10SM CLR 09/06 A3008 RMK AO2 T00850062 10100 20085


Station Type Date Time Source
KHSP Decoded METAR 2021/09/24 05:55 UTC NOAA

Hot Springs / Ingalls, VA, United States (KHSP) 37-57N 079-50W
Sep 24, 2021 - 01:55 AM EDT / 2021.09.24 0555 UTC
Wind: from the W (280 degrees) at 16 MPH (14 KT) gusting to 23 MPH (20 KT):0
Visibility: 10 mile(s):0
Sky conditions: clear
Temperature: 47.3 F (8.5 C)
Dew Point: 43.2 F (6.2 C)
Relative Humidity: 85%
Pressure (altimeter): 30.08 in. Hg (1018 hPa)
ob: KHSP 240555Z AUTO 28014G20KT 10SM CLR 09/06 A3008 RMK AO2 T00850062 10100 20085
cycle: 6

Station Type Date Time Source
KHSP TAF UTC NOAA

Error!

Example: see airport list